createdAt,value
2017-12-11T00:02:01.044Z,84.61
2017-12-11T00:04:30.512Z,84.31
2017-12-11T00:07:00.244Z,84.21
2017-12-11T00:09:28.580Z,84.16
2017-12-11T00:11:57.712Z,84.02
2017-12-11T00:14:26.072Z,83.96
2017-12-11T00:16:55.792Z,84.02
2017-12-11T00:19:25.475Z,84.01
2017-12-11T00:21:54.599Z,84.15
2017-12-11T00:24:22.959Z,84.08
2017-12-11T00:26:51.678Z,84.18
2017-12-11T00:29:21.404Z,84.01
2017-12-11T00:31:51.071Z,84.11
2017-12-11T00:34:19.411Z,84.17
2017-12-11T00:36:49.256Z,84.42
2017-12-11T00:39:17.987Z,84.37
2017-12-11T00:41:46.748Z,84.70
2017-12-11T00:44:16.431Z,84.74
2017-12-11T00:46:45.552Z,84.86
2017-12-11T00:49:13.880Z,84.90
2017-12-11T00:51:43.600Z,85.01
2017-12-11T00:54:11.923Z,85.05
2017-12-11T00:56:41.631Z,85.26
2017-12-11T00:59:09.975Z,85.34
2017-12-11T01:01:39.479Z,85.44
2017-12-11T01:04:08.623Z,85.64
2017-12-11T01:06:38.283Z,85.64
2017-12-11T01:09:07.409Z,85.59
2017-12-11T01:11:37.239Z,85.57
2017-12-11T01:14:06.736Z,85.37
2017-12-11T01:16:36.197Z,85.31
2017-12-11T01:19:05.934Z,85.49
2017-12-11T01:21:34.287Z,85.51
2017-12-11T01:24:02.680Z,85.75
2017-12-11T01:26:31.045Z,85.69
2017-12-11T01:28:59.787Z,85.73
2017-12-11T01:31:28.929Z,85.72
2017-12-11T01:33:58.606Z,85.80
2017-12-11T01:36:26.932Z,86.02
2017-12-11T01:38:56.062Z,86.18
2017-12-11T01:41:25.739Z,86.53
2017-12-11T01:43:54.091Z,86.75
2017-12-11T01:46:23.779Z,86.95
2017-12-11T01:48:52.535Z,86.93
2017-12-11T01:51:21.263Z,87.09
2017-12-11T01:53:50.760Z,87.32
2017-12-11T01:56:19.558Z,87.32
2017-12-11T01:58:49.379Z,87.60
2017-12-11T02:01:18.859Z,87.81
2017-12-11T02:03:48.539Z,87.85
2017-12-11T02:06:17.287Z,88.11
2017-12-11T02:08:46.042Z,88.09
2017-12-11T02:11:15.523Z,87.86
2017-12-11T02:13:44.274Z,87.64
2017-12-11T02:16:12.598Z,87.48
2017-12-11T02:18:41.355Z,86.98
2017-12-11T02:21:09.735Z,86.77
2017-12-11T02:23:39.439Z,86.89
2017-12-11T02:26:09.102Z,87.04
2017-12-11T02:28:38.795Z,87.11
2017-12-11T02:31:08.255Z,87.35
2017-12-11T02:33:37.019Z,87.43
2017-12-11T02:36:06.496Z,87.50
2017-12-11T02:38:36.518Z,87.58
2017-12-11T02:41:05.968Z,87.79
2017-12-11T02:43:35.686Z,87.63
2017-12-11T02:46:04.019Z,87.75
2017-12-11T02:48:33.131Z,87.68
2017-12-11T02:51:02.841Z,87.69
2017-12-11T02:53:31.251Z,87.22
2017-12-11T02:56:00.718Z,86.30
2017-12-11T02:58:30.430Z,85.94
2017-12-11T03:00:59.522Z,85.37
2017-12-11T03:03:28.266Z,85.19
2017-12-11T03:05:57.006Z,84.85
2017-12-11T03:08:26.678Z,84.53
2017-12-11T03:10:55.023Z,84.68
2017-12-11T03:13:24.490Z,84.26
2017-12-11T03:15:53.238Z,83.86
2017-12-11T03:18:22.906Z,84.04
2017-12-11T03:20:51.650Z,83.82
2017-12-11T03:23:21.509Z,83.63
2017-12-11T03:25:51.173Z,83.05
2017-12-11T03:28:20.682Z,83.20
2017-12-11T03:30:49.023Z,82.84
2017-12-11T03:33:17.395Z,82.47
2017-12-11T03:35:47.062Z,82.00
2017-12-11T03:38:16.188Z,81.81
2017-12-11T03:40:46.063Z,81.48
2017-12-11T03:43:14.770Z,81.30
2017-12-11T03:45:44.309Z,81.07
2017-12-11T03:48:13.978Z,80.84
2017-12-11T03:50:43.498Z,80.69
2017-12-11T03:53:11.858Z,80.32
2017-12-11T03:55:40.210Z,80.53
2017-12-11T03:58:08.534Z,80.42
2017-12-11T04:00:37.286Z,80.62
2017-12-11T04:03:06.058Z,80.54
2017-12-11T04:05:34.806Z,80.44
2017-12-11T04:08:04.362Z,80.36
2017-12-11T04:10:33.914Z,80.17
2017-12-11T04:13:02.654Z,80.09
2017-12-11T04:15:32.150Z,80.09
2017-12-11T04:18:01.970Z,79.88
2017-12-11T04:20:31.685Z,80.03
2017-12-11T04:23:01.438Z,79.52
2017-12-11T04:25:31.321Z,79.27
2017-12-11T04:28:00.030Z,79.17
2017-12-11T04:30:28.379Z,78.79
2017-12-11T04:32:57.129Z,78.96
2017-12-11T04:35:26.813Z,78.69
2017-12-11T04:37:56.301Z,78.22
2017-12-11T04:40:25.765Z,78.04
2017-12-11T04:42:55.477Z,77.75
2017-12-11T04:45:23.806Z,77.25
2017-12-11T04:47:52.534Z,77.03
2017-12-11T04:50:22.158Z,76.98
2017-12-11T04:52:50.453Z,76.48
2017-12-11T04:55:19.158Z,76.16
2017-12-11T04:57:48.649Z,76.26
2017-12-11T05:00:17.405Z,76.87
2017-12-11T05:02:45.765Z,76.15
2017-12-11T05:05:14.109Z,75.66
2017-12-11T05:07:43.826Z,75.80
2017-12-11T05:10:13.765Z,75.77
2017-12-11T05:12:42.904Z,75.69
2017-12-11T05:15:11.362Z,75.58
2017-12-11T05:17:40.452Z,75.24
2017-12-11T05:20:09.574Z,75.51
2017-12-11T05:22:38.341Z,74.93
2017-12-11T05:25:07.974Z,75.36
2017-12-11T05:27:36.326Z,75.14
2017-12-11T05:30:05.853Z,75.08
2017-12-11T05:32:34.672Z,74.25
2017-12-11T05:35:04.825Z,74.03
2017-12-11T05:37:34.666Z,73.90
2017-12-11T05:40:03.397Z,74.02
2017-12-11T05:42:32.153Z,74.18
2017-12-11T05:45:00.522Z,74.12
2017-12-11T05:47:29.648Z,74.30
2017-12-11T05:49:58.377Z,74.63
2017-12-11T05:52:27.124Z,74.53
2017-12-11T05:54:56.252Z,74.24
2017-12-11T05:57:24.577Z,73.90
2017-12-11T05:59:54.293Z,74.17
2017-12-11T06:02:22.625Z,74.34
2017-12-11T06:04:50.957Z,73.50
2017-12-11T06:07:19.712Z,73.91
2017-12-11T06:09:49.185Z,74.27
2017-12-11T06:12:17.525Z,74.41
2017-12-11T06:14:45.876Z,74.84
2017-12-11T06:17:15.709Z,74.77
2017-12-11T06:19:45.436Z,75.09
2017-12-11T06:22:14.517Z,75.24
2017-12-11T06:24:43.648Z,75.44
2017-12-11T06:27:13.145Z,76.20
2017-12-11T06:29:41.497Z,76.12
2017-12-11T06:32:11.204Z,75.84
2017-12-11T06:34:39.593Z,75.86
2017-12-11T06:37:09.473Z,75.84
2017-12-11T06:39:37.809Z,75.78
2017-12-11T06:42:07.684Z,76.04
2017-12-11T06:44:36.820Z,75.87
2017-12-11T06:47:05.154Z,75.71
2017-12-11T06:49:34.280Z,76.10
2017-12-11T06:52:03.029Z,76.18
2017-12-11T06:54:32.975Z,76.34
2017-12-11T06:57:01.333Z,76.28
2017-12-11T06:59:29.664Z,76.50
2017-12-11T07:01:58.013Z,76.43
2017-12-11T07:04:26.336Z,76.50
2017-12-11T07:06:54.673Z,76.80
2017-12-11T07:09:23.041Z,76.85
2017-12-11T07:11:51.361Z,76.55
2017-12-11T07:14:19.680Z,76.37
2017-12-11T07:16:48.808Z,76.08
2017-12-11T07:19:18.511Z,76.20
2017-12-11T07:21:48.228Z,75.84
2017-12-11T07:24:17.904Z,75.52
2017-12-11T07:26:49.276Z,75.25
2017-12-11T07:29:18.000Z,74.83
2017-12-11T07:31:47.721Z,74.92
2017-12-11T07:34:17.443Z,75.03
2017-12-11T07:36:45.809Z,73.85
2017-12-11T07:39:15.656Z,72.61
2017-12-11T07:41:45.124Z,71.80
2017-12-11T07:44:14.246Z,71.08
2017-12-11T07:46:45.222Z,71.16
2017-12-11T07:49:13.600Z,71.07
2017-12-11T07:51:42.152Z,71.29
2017-12-11T07:54:10.893Z,71.06
2017-12-11T07:56:39.781Z,71.17
2017-12-11T07:59:08.730Z,71.21
2017-12-11T08:01:37.330Z,71.13
2017-12-11T08:04:05.704Z,71.04
2017-12-11T08:06:34.081Z,71.30
2017-12-11T08:09:03.791Z,71.78
2017-12-11T08:11:32.136Z,72.16
2017-12-11T08:14:01.224Z,72.32
2017-12-11T08:16:30.336Z,71.91
2017-12-11T08:18:59.551Z,72.20
2017-12-11T08:21:28.748Z,71.88
2017-12-11T08:23:58.571Z,71.58
2017-12-11T08:26:28.552Z,71.28
2017-12-11T08:28:58.170Z,71.30
2017-12-11T08:31:27.381Z,71.42
2017-12-11T08:33:55.707Z,71.63
2017-12-11T08:36:24.616Z,71.91
2017-12-11T08:38:53.112Z,72.09
2017-12-11T08:41:22.887Z,72.28
2017-12-11T08:43:51.265Z,72.16
2017-12-11T08:46:20.224Z,71.59
2017-12-11T08:48:49.796Z,71.98
2017-12-11T08:51:19.787Z,71.74
2017-12-11T08:53:49.516Z,71.65
2017-12-11T08:56:19.292Z,71.86
2017-12-11T08:58:47.848Z,71.86
2017-12-11T09:01:18.069Z,71.85
2017-12-11T09:03:47.863Z,71.94
2017-12-11T09:06:17.428Z,72.19
2017-12-11T09:08:45.748Z,71.86
2017-12-11T09:11:14.105Z,71.96
2017-12-11T09:13:42.875Z,71.78
2017-12-11T09:16:11.647Z,71.77
2017-12-11T09:18:41.367Z,71.66
2017-12-11T09:21:11.368Z,71.30
2017-12-11T09:23:39.868Z,71.36
2017-12-11T09:26:09.723Z,71.39
2017-12-11T09:28:39.627Z,71.26
2017-12-11T09:31:08.085Z,71.07
2017-12-11T09:33:37.024Z,70.75
2017-12-11T09:36:06.403Z,70.37
2017-12-11T09:38:34.900Z,69.67
2017-12-11T09:41:03.279Z,69.64
2017-12-11T09:43:31.703Z,69.77
2017-12-11T09:46:00.855Z,69.86
2017-12-11T09:48:29.519Z,70.12
2017-12-11T09:50:58.469Z,70.31
2017-12-11T09:53:26.924Z,70.39
2017-12-11T09:55:55.912Z,70.49
2017-12-11T09:58:25.007Z,70.30
2017-12-11T10:00:54.255Z,70.31
2017-12-11T10:03:22.971Z,69.83
2017-12-11T10:05:52.687Z,69.54
2017-12-11T10:08:21.031Z,68.57
2017-12-11T10:10:50.795Z,68.12
2017-12-11T10:13:19.779Z,68.28
2017-12-11T10:15:48.523Z,68.10
2017-12-11T10:18:17.427Z,68.12
2017-12-11T10:20:46.156Z,68.19
2017-12-11T10:23:15.963Z,68.05
2017-12-11T10:25:45.679Z,67.98
2017-12-11T10:28:15.379Z,67.95
2017-12-11T10:30:43.759Z,67.88
2017-12-11T10:33:13.472Z,68.00
2017-12-11T10:35:42.628Z,67.82
2017-12-11T10:38:12.589Z,67.75
2017-12-11T10:40:41.003Z,67.80
2017-12-11T10:43:10.510Z,68.00
2017-12-11T10:45:39.247Z,68.22
2017-12-11T10:48:08.371Z,68.15
2017-12-11T10:50:37.463Z,68.22
2017-12-11T10:53:06.224Z,68.26
2017-12-11T10:55:35.319Z,68.16
2017-12-11T10:58:04.439Z,68.30
2017-12-11T11:00:32.767Z,68.39
2017-12-11T11:03:01.522Z,68.79
2017-12-11T11:05:31.348Z,69.05
2017-12-11T11:08:00.099Z,69.35
2017-12-11T11:10:28.447Z,69.28
2017-12-11T11:12:57.911Z,69.31
2017-12-11T11:15:26.271Z,69.41
2017-12-11T11:17:55.363Z,69.52
2017-12-11T11:20:23.697Z,69.62
2017-12-11T11:22:52.817Z,69.88
2017-12-11T11:25:21.903Z,69.86
2017-12-11T11:27:50.651Z,69.72
2017-12-11T11:30:19.747Z,69.58
2017-12-11T11:32:48.467Z,69.59
2017-12-11T11:35:17.596Z,69.67
2017-12-11T11:37:47.422Z,69.52
2017-12-11T11:40:17.464Z,69.34
2017-12-11T11:42:47.155Z,69.06
2017-12-11T11:45:15.514Z,68.92
2017-12-11T11:47:45.265Z,68.56
2017-12-11T11:50:13.623Z,68.21
2017-12-11T11:52:42.352Z,68.08
2017-12-11T11:55:11.463Z,68.04
2017-12-11T11:57:39.819Z,67.83
2017-12-11T12:00:08.136Z,67.81
2017-12-11T12:02:37.844Z,67.62
2017-12-11T12:05:06.970Z,67.28
2017-12-11T12:07:36.130Z,67.24
2017-12-11T12:10:04.449Z,67.22
2017-12-11T12:12:33.594Z,67.24
2017-12-11T12:15:02.681Z,67.42
2017-12-11T12:17:31.057Z,67.58
2017-12-11T12:20:00.182Z,68.16
2017-12-11T12:22:28.550Z,68.33
2017-12-11T12:24:57.975Z,68.48
2017-12-11T12:27:27.687Z,68.58
2017-12-11T12:29:57.386Z,68.50
2017-12-11T12:32:25.736Z,68.37
2017-12-11T12:34:54.114Z,68.55
2017-12-11T12:37:23.586Z,68.78
2017-12-11T12:39:52.705Z,69.03
2017-12-11T12:42:21.078Z,69.18
2017-12-11T12:44:50.774Z,69.61
2017-12-11T12:47:19.914Z,69.90
2017-12-11T12:49:48.290Z,70.09
2017-12-11T12:52:16.650Z,70.15
2017-12-11T12:54:45.222Z,70.16
2017-12-11T12:57:14.350Z,70.09
2017-12-11T12:59:43.090Z,69.87
2017-12-11T13:02:12.825Z,69.67
2017-12-11T13:04:41.550Z,69.68
2017-12-11T13:07:11.205Z,69.96
2017-12-11T13:09:39.590Z,70.14
2017-12-11T13:12:09.050Z,70.13
2017-12-11T13:14:38.174Z,70.18
2017-12-11T13:17:06.514Z,70.13
2017-12-11T13:19:36.018Z,69.88
2017-12-11T13:22:05.122Z,69.67
2017-12-11T13:24:33.910Z,70.29
2017-12-11T13:27:02.753Z,70.77
2017-12-11T13:29:31.165Z,71.10
2017-12-11T13:32:00.329Z,71.14
2017-12-11T13:34:30.198Z,71.24
2017-12-11T13:36:59.361Z,70.98
2017-12-11T13:39:28.871Z,71.17
2017-12-11T13:41:57.195Z,71.15
2017-12-11T13:44:26.645Z,71.52
2017-12-11T13:46:55.401Z,71.47
2017-12-11T13:49:23.805Z,71.43
2017-12-11T13:51:52.142Z,71.34
2017-12-11T13:54:22.902Z,71.25
2017-12-11T13:56:53.347Z,71.45
2017-12-11T13:59:22.128Z,71.44
2017-12-11T14:01:53.267Z,71.78
2017-12-11T14:04:22.309Z,71.92
2017-12-11T14:06:52.005Z,71.98
2017-12-11T14:09:21.154Z,71.90
2017-12-11T14:11:49.522Z,72.08
2017-12-11T14:14:18.623Z,72.19
2017-12-11T14:16:48.141Z,72.32
2017-12-11T14:19:18.653Z,72.30
2017-12-11T14:21:47.065Z,72.19
2017-12-11T14:24:16.179Z,72.29
2017-12-11T14:26:46.274Z,72.20
2017-12-11T14:29:14.651Z,72.54
2017-12-11T14:31:42.990Z,72.87
2017-12-11T14:34:12.701Z,72.94
2017-12-11T14:36:42.583Z,73.27
2017-12-11T14:39:11.665Z,73.74
2017-12-11T14:41:40.801Z,73.90
2017-12-11T14:44:10.703Z,73.68
2017-12-11T14:46:40.412Z,73.57
2017-12-11T14:49:09.161Z,73.22
2017-12-11T14:51:38.941Z,73.06
2017-12-11T14:54:08.677Z,72.86
2017-12-11T14:56:37.497Z,72.75
2017-12-11T14:59:06.958Z,72.35
2017-12-11T15:01:37.769Z,72.08
2017-12-11T15:04:06.106Z,71.93
2017-12-11T15:06:36.197Z,71.08
2017-12-11T15:09:04.527Z,70.84
2017-12-11T15:11:34.615Z,70.49
2017-12-11T15:14:03.357Z,70.36
2017-12-11T15:16:31.775Z,70.43
2017-12-11T15:19:00.109Z,69.99
2017-12-11T15:21:29.223Z,70.27
2017-12-11T15:23:57.605Z,70.45
2017-12-11T15:26:25.961Z,70.02
2017-12-11T15:28:55.056Z,70.04
2017-12-11T15:31:23.525Z,69.59
2017-12-11T15:33:52.997Z,69.65
2017-12-11T15:36:22.705Z,69.37
2017-12-11T15:38:51.808Z,69.72
2017-12-11T15:41:21.820Z,69.29
2017-12-11T15:43:51.301Z,69.30
2017-12-11T15:46:20.949Z,69.05
2017-12-11T15:48:49.728Z,68.99
2017-12-11T15:51:18.101Z,69.39
2017-12-11T15:53:47.822Z,69.37
2017-12-11T15:56:16.989Z,69.45
2017-12-11T15:58:46.096Z,69.57
2017-12-11T16:01:14.892Z,69.68
2017-12-11T16:03:43.989Z,69.97
2017-12-11T16:06:12.330Z,70.06
2017-12-11T16:08:41.464Z,70.04
2017-12-11T16:11:10.268Z,69.77
2017-12-11T16:13:38.669Z,69.88
2017-12-11T16:16:07.100Z,70.12
2017-12-11T16:18:36.216Z,70.38
2017-12-11T16:21:04.984Z,70.59
2017-12-11T16:23:34.483Z,70.73
2017-12-11T16:26:04.100Z,70.54
2017-12-11T16:28:33.348Z,70.49
2017-12-11T16:31:01.865Z,70.43
2017-12-11T16:33:30.229Z,70.33
2017-12-11T16:35:58.609Z,70.55
2017-12-11T16:38:28.120Z,70.65
2017-12-11T16:40:56.916Z,70.78
2017-12-11T16:43:27.208Z,70.92
2017-12-11T16:45:56.325Z,70.85
2017-12-11T16:48:24.651Z,70.82
2017-12-11T16:50:53.032Z,70.91
2017-12-11T16:53:21.376Z,71.10
2017-12-11T16:55:50.552Z,71.18
2017-12-11T16:58:19.300Z,71.63
2017-12-11T17:00:48.428Z,71.85
2017-12-11T17:03:16.787Z,72.47
2017-12-11T17:05:45.168Z,72.34
2017-12-11T17:08:13.536Z,72.55
2017-12-11T17:10:42.664Z,72.41
2017-12-11T17:13:12.284Z,72.50
2017-12-11T17:15:42.158Z,72.59
2017-12-11T17:18:10.512Z,72.58
2017-12-11T17:20:39.834Z,72.48
2017-12-11T17:23:08.425Z,72.45
2017-12-11T17:25:40.177Z,72.62
2017-12-11T17:28:08.584Z,72.73
2017-12-11T17:30:36.944Z,72.78
2017-12-11T17:33:05.564Z,72.27
2017-12-11T17:35:34.708Z,72.12
2017-12-11T17:38:03.477Z,71.99
2017-12-11T17:40:32.995Z,72.15
2017-12-11T17:43:01.333Z,72.56
2017-12-11T17:45:29.755Z,73.27
2017-12-11T17:47:58.097Z,74.25
2017-12-11T17:50:27.187Z,74.20
2017-12-11T17:52:57.064Z,74.11
2017-12-11T17:55:25.462Z,74.31
2017-12-11T17:57:54.553Z,74.92
2017-12-11T18:00:23.661Z,75.55
2017-12-11T18:02:52.773Z,75.87
2017-12-11T18:05:21.130Z,75.99
2017-12-11T18:07:49.851Z,76.31
2017-12-11T18:10:18.945Z,76.41
2017-12-11T18:12:47.323Z,76.83
2017-12-11T18:15:15.659Z,77.24
2017-12-11T18:17:44.739Z,77.53
2017-12-11T18:20:13.091Z,77.73
2017-12-11T18:22:42.323Z,77.91
2017-12-11T18:25:10.851Z,78.14
2017-12-11T18:27:40.331Z,78.24
2017-12-11T18:30:09.500Z,78.54
2017-12-11T18:32:37.821Z,78.39
2017-12-11T18:35:06.166Z,78.54
2017-12-11T18:37:34.887Z,78.27
2017-12-11T18:40:03.287Z,78.13
2017-12-11T18:42:31.599Z,77.91
2017-12-11T18:44:59.983Z,77.83
2017-12-11T18:47:29.479Z,78.13
2017-12-11T18:49:58.608Z,78.18
2017-12-11T18:52:28.197Z,78.33
2017-12-11T18:54:58.399Z,78.48
2017-12-11T18:57:26.839Z,78.74
2017-12-11T18:59:55.171Z,79.02
2017-12-11T19:02:23.499Z,79.08
2017-12-11T19:04:54.303Z,79.53
2017-12-11T19:07:23.039Z,79.30
2017-12-11T19:09:51.379Z,79.12
2017-12-11T19:12:20.148Z,78.94
2017-12-11T19:14:50.131Z,78.83
2017-12-11T19:17:19.511Z,79.04
2017-12-11T19:19:51.301Z,79.02
2017-12-11T19:22:20.096Z,78.89
2017-12-11T19:24:49.490Z,78.72
2017-12-11T19:27:18.590Z,78.60
2017-12-11T19:29:48.072Z,78.55
2017-12-11T19:32:17.662Z,78.49
2017-12-11T19:34:46.039Z,78.49
2017-12-11T19:37:16.638Z,78.50
2017-12-11T19:39:45.055Z,78.54
2017-12-11T19:42:13.940Z,78.63
2017-12-11T19:44:42.287Z,78.61
2017-12-11T19:47:12.687Z,78.49
2017-12-11T19:49:41.204Z,78.48
2017-12-11T19:52:11.295Z,78.25
2017-12-11T19:54:42.507Z,77.96
2017-12-11T19:57:16.403Z,77.82
2017-12-11T19:59:45.382Z,77.49
2017-12-11T20:02:16.375Z,77.34
2017-12-11T20:04:46.162Z,77.12
2017-12-11T20:07:14.575Z,76.77
2017-12-11T20:09:43.406Z,76.45
2017-12-11T20:12:13.374Z,76.12
2017-12-11T20:14:43.148Z,75.65
2017-12-11T20:17:36.590Z,75.39
2017-12-11T20:20:05.143Z,75.06
2017-12-11T20:22:34.749Z,74.94
2017-12-11T20:25:04.087Z,75.06
2017-12-11T20:27:32.570Z,74.94
2017-12-11T20:30:03.623Z,74.79
2017-12-11T20:32:32.422Z,74.61
2017-12-11T20:35:01.328Z,74.62
2017-12-11T20:37:30.986Z,74.53
2017-12-11T20:40:00.978Z,74.37
2017-12-11T20:42:31.092Z,74.17
2017-12-11T20:45:00.114Z,74.34
2017-12-11T20:47:31.388Z,74.42
2017-12-11T20:50:00.051Z,74.44
2017-12-11T20:52:30.306Z,74.49
2017-12-11T20:55:01.354Z,74.34
2017-12-11T20:57:31.151Z,74.36
2017-12-11T21:00:01.366Z,74.37
2017-12-11T21:02:33.619Z,74.17
2017-12-11T21:05:03.614Z,74.14
2017-12-11T21:07:32.172Z,74.00
2017-12-11T21:10:04.166Z,73.91
2017-12-11T21:12:34.134Z,73.94
2017-12-11T21:15:07.135Z,73.91
2017-12-11T21:17:38.647Z,73.81
2017-12-11T21:20:10.572Z,74.01
2017-12-11T21:22:39.023Z,73.99
2017-12-11T21:25:08.611Z,73.74
2017-12-11T21:27:37.942Z,73.66
2017-12-11T21:30:07.747Z,73.93
2017-12-11T21:32:36.506Z,73.90
2017-12-11T21:35:06.011Z,73.61
2017-12-11T21:37:34.486Z,73.46
2017-12-11T21:40:03.665Z,73.50
2017-12-11T21:42:32.871Z,73.55
2017-12-11T21:45:01.350Z,73.44
2017-12-11T21:47:31.133Z,73.41
2017-12-11T21:50:00.698Z,73.33
2017-12-11T21:52:29.145Z,73.31
2017-12-11T21:54:58.826Z,73.20
2017-12-11T21:57:29.142Z,73.18
2017-12-11T21:59:58.273Z,72.91
2017-12-11T22:02:26.606Z,73.10
2017-12-11T22:04:55.730Z,73.21
2017-12-11T22:07:25.233Z,73.18
2017-12-11T22:09:54.334Z,73.33
2017-12-11T22:12:23.127Z,73.31
2017-12-11T22:14:51.865Z,73.28
2017-12-11T22:17:21.033Z,73.25
2017-12-11T22:19:49.381Z,73.47
2017-12-11T22:22:17.708Z,73.47
2017-12-11T22:24:46.827Z,73.45
2017-12-11T22:27:15.554Z,73.46
2017-12-11T22:29:43.918Z,73.56
2017-12-11T22:32:12.261Z,73.48
2017-12-11T22:34:41.125Z,73.42
2017-12-11T22:37:10.221Z,73.45
2017-12-11T22:39:38.581Z,73.37
2017-12-11T22:42:08.065Z,73.51
2017-12-11T22:44:37.195Z,73.45
2017-12-11T22:47:05.533Z,73.42
2017-12-11T22:49:34.662Z,73.39
2017-12-11T22:52:02.982Z,73.32
2017-12-11T22:54:31.743Z,73.34
2017-12-11T22:57:00.871Z,73.38
2017-12-11T22:59:29.315Z,73.13
2017-12-11T23:01:59.120Z,73.18
2017-12-11T23:04:27.901Z,73.11
2017-12-11T23:06:56.227Z,72.97
2017-12-11T23:09:24.957Z,72.96
2017-12-11T23:11:53.336Z,72.98
2017-12-11T23:14:22.061Z,72.97
2017-12-11T23:16:51.955Z,73.03
2017-12-11T23:19:20.553Z,72.98
2017-12-11T23:21:49.287Z,72.86
2017-12-11T23:24:17.648Z,72.88
2017-12-11T23:26:46.389Z,72.80
2017-12-11T23:29:14.737Z,72.83
2017-12-11T23:31:43.093Z,72.55
2017-12-11T23:34:11.413Z,72.64
2017-12-11T23:36:41.291Z,72.53
2017-12-11T23:39:09.619Z,72.48
2017-12-11T23:41:37.956Z,72.44
2017-12-11T23:44:06.359Z,72.33
2017-12-11T23:46:34.731Z,72.42
2017-12-11T23:49:03.091Z,72.21
2017-12-11T23:51:31.413Z,72.25
2017-12-11T23:54:18.285Z,72.34
2017-12-11T23:56:46.609Z,72.46
2017-12-11T23:59:16.109Z,72.43
